Patchogue, New York
Current Conditions -  °F | °C
As of 10:56 AM on Thursday 27 Nov 2014 (Local Time) from KISP Reporting Station
Light Snow Light Snow  
Wind Chill: 33°   Ceiling: 4500
Heat Index: 38°   Visibility: 9mi
Dew Point: 30°   Wind: 6mph
Humidity: 73%   Direction: 320°NW
Pressure: 29.97"   Gusts: NA
Location:  40.76°N, 73.01°W
Report Text: KISP 271556Z 32005KT 9SM -SN SCT017 BKN045 OVC055 03/M01 A2997 RMK AO2 SNB31 SLP148 P0000 T00331011
Loading
Personal Weather Stations






























Interactive Weather Map New forecast layout! Learn more

10-Day Weather Forecast

Advertisements
Track Severe Weather on mobile